Terminal Aerodrome Forecast
Issued by NWS

Home | Current Version | Previous Version | Text Only | Print | Product List | Glossary On
Versions: 1 2 3 4 5 6 7 8 9 10 11 12 13 14 15 16 17 18 19 20 21 22 23 24
519
FTUS45 KBOI 292345
TAFTWF
TAF
KTWF 292345Z 3000/3024 27010KT P6SM BKN060
     FM300600 20011KT P6SM -SHRA OVC030
     FM301700 23012G18KT P6SM -RA OVC025
     FM301900 25028G38KT 4SM -RA OVC010=

USA.gov is the U.S. government's official web portal to all federal, state and local government web resources and services.